sensor_id;sensor_type;location;lat;lon;timestamp;P1;durP1;ratioP1;P2;durP2;ratioP2
44822;SDS011;51097;51.984;5.650;2023-08-17T00:01:54;2.03;;;1.67;;
44822;SDS011;51097;51.984;5.650;2023-08-17T00:04:20;5.93;;;2.80;;
44822;SDS011;51097;51.984;5.650;2023-08-17T00:06:46;6.50;;;2.13;;
44822;SDS011;51097;51.984;5.650;2023-08-17T00:09:12;3.78;;;2.00;;
44822;SDS011;51097;51.984;5.650;2023-08-17T00:11:38;4.70;;;2.10;;
44822;SDS011;51097;51.984;5.650;2023-08-17T00:14:04;5.00;;;2.33;;
44822;SDS011;51097;51.984;5.650;2023-08-17T00:16:30;5.05;;;2.17;;
44822;SDS011;51097;51.984;5.650;2023-08-17T00:18:56;5.30;;;2.40;;
44822;SDS011;51097;51.984;5.650;2023-08-17T00:21:22;5.25;;;1.80;;
44822;SDS011;51097;51.984;5.650;2023-08-17T00:23:47;4.63;;;1.88;;
44822;SDS011;51097;51.984;5.650;2023-08-17T00:26:14;2.65;;;2.00;;
44822;SDS011;51097;51.984;5.650;2023-08-17T00:28:39;4.68;;;2.47;;
44822;SDS011;51097;51.984;5.650;2023-08-17T00:31:05;5.68;;;2.42;;
44822;SDS011;51097;51.984;5.650;2023-08-17T00:33:31;5.47;;;2.35;;
44822;SDS011;51097;51.984;5.650;2023-08-17T00:35:57;5.65;;;2.05;;
44822;SDS011;51097;51.984;5.650;2023-08-17T00:38:22;5.20;;;2.30;;
44822;SDS011;51097;51.984;5.650;2023-08-17T00:40:48;4.72;;;2.50;;
44822;SDS011;51097;51.984;5.650;2023-08-17T00:43:13;4.85;;;2.17;;
44822;SDS011;51097;51.984;5.650;2023-08-17T00:45:39;3.38;;;1.73;;
44822;SDS011;51097;51.984;5.650;2023-08-17T00:48:06;3.90;;;2.10;;
44822;SDS011;51097;51.984;5.650;2023-08-17T00:50:33;4.57;;;1.92;;
44822;SDS011;51097;51.984;5.650;2023-08-17T00:53:00;4.53;;;1.80;;
44822;SDS011;51097;51.984;5.650;2023-08-17T00:55:26;4.40;;;2.50;;
44822;SDS011;51097;51.984;5.650;2023-08-17T00:57:53;4.30;;;2.20;;
44822;SDS011;51097;51.984;5.650;2023-08-17T01:00:20;6.22;;;3.65;;
44822;SDS011;51097;51.984;5.650;2023-08-17T01:02:47;6.25;;;2.47;;
44822;SDS011;51097;51.984;5.650;2023-08-17T01:05:13;6.70;;;2.40;;
44822;SDS011;51097;51.984;5.650;2023-08-17T01:07:38;4.50;;;2.20;;
44822;SDS011;51097;51.984;5.650;2023-08-17T01:10:04;4.45;;;1.90;;
44822;SDS011;51097;51.984;5.650;2023-08-17T01:12:35;4.32;;;2.00;;
44822;SDS011;51097;51.984;5.650;2023-08-17T01:15:14;4.75;;;1.98;;
44822;SDS011;51097;51.984;5.650;2023-08-17T01:20:24;3.92;;;2.22;;
44822;SDS011;51097;51.984;5.650;2023-08-17T01:22:51;3.90;;;1.98;;
44822;SDS011;51097;51.984;5.650;2023-08-17T01:25:21;13.10;;;2.22;;
44822;SDS011;51097;51.984;5.650;2023-08-17T01:27:48;6.05;;;2.90;;
44822;SDS011;51097;51.984;5.650;2023-08-17T01:30:14;6.07;;;2.40;;
44822;SDS011;51097;51.984;5.650;2023-08-17T01:35:27;6.47;;;2.60;;
44822;SDS011;51097;51.984;5.650;2023-08-17T01:37:58;6.10;;;2.42;;
44822;SDS011;51097;51.984;5.650;2023-08-17T01:40:28;3.65;;;2.25;;
44822;SDS011;51097;51.984;5.650;2023-08-17T01:42:57;3.97;;;2.22;;
44822;SDS011;51097;51.984;5.650;2023-08-17T01:45:24;6.25;;;2.20;;
44822;SDS011;51097;51.984;5.650;2023-08-17T01:47:50;4.05;;;2.05;;
44822;SDS011;51097;51.984;5.650;2023-08-17T01:50:15;7.13;;;2.72;;
44822;SDS011;51097;51.984;5.650;2023-08-17T01:52:41;5.13;;;2.92;;
44822;SDS011;51097;51.984;5.650;2023-08-17T01:55:07;5.03;;;2.47;;
44822;SDS011;51097;51.984;5.650;2023-08-17T01:57:33;3.35;;;2.20;;
44822;SDS011;51097;51.984;5.650;2023-08-17T02:00:00;4.75;;;2.63;;
44822;SDS011;51097;51.984;5.650;2023-08-17T02:02:26;4.03;;;2.40;;
44822;SDS011;51097;51.984;5.650;2023-08-17T02:04:51;4.15;;;2.38;;
44822;SDS011;51097;51.984;5.650;2023-08-17T02:07:17;6.80;;;2.42;;
44822;SDS011;51097;51.984;5.650;2023-08-17T02:09:43;4.95;;;2.63;;
44822;SDS011;51097;51.984;5.650;2023-08-17T02:12:08;4.47;;;2.60;;
44822;SDS011;51097;51.984;5.650;2023-08-17T02:14:34;3.40;;;2.03;;
44822;SDS011;51097;51.984;5.650;2023-08-17T02:16:59;5.32;;;2.45;;
44822;SDS011;51097;51.984;5.650;2023-08-17T02:19:25;4.38;;;2.40;;
44822;SDS011;51097;51.984;5.650;2023-08-17T02:21:51;6.55;;;2.60;;
44822;SDS011;51097;51.984;5.650;2023-08-17T02:24:16;4.28;;;2.58;;
44822;SDS011;51097;51.984;5.650;2023-08-17T02:26:42;3.47;;;2.45;;
44822;SDS011;51097;51.984;5.650;2023-08-17T02:29:07;3.85;;;2.40;;
44822;SDS011;51097;51.984;5.650;2023-08-17T02:31:33;3.78;;;2.58;;
44822;SDS011;51097;51.984;5.650;2023-08-17T02:33:59;5.97;;;2.80;;
44822;SDS011;51097;51.984;5.650;2023-08-17T02:36:29;5.65;;;2.42;;
44822;SDS011;51097;51.984;5.650;2023-08-17T02:38:55;7.18;;;2.70;;
44822;SDS011;51097;51.984;5.650;2023-08-17T02:41:21;5.07;;;2.22;;
44822;SDS011;51097;51.984;5.650;2023-08-17T02:43:46;5.53;;;2.60;;
44822;SDS011;51097;51.984;5.650;2023-08-17T02:46:12;5.55;;;2.67;;
44822;SDS011;51097;51.984;5.650;2023-08-17T02:48:38;3.58;;;2.20;;
44822;SDS011;51097;51.984;5.650;2023-08-17T02:51:03;6.32;;;2.28;;
44822;SDS011;51097;51.984;5.650;2023-08-17T02:53:29;3.25;;;1.92;;
44822;SDS011;51097;51.984;5.650;2023-08-17T02:55:55;5.55;;;2.30;;
44822;SDS011;51097;51.984;5.650;2023-08-17T02:58:20;2.38;;;2.10;;
44822;SDS011;51097;51.984;5.650;2023-08-17T03:00:46;6.50;;;2.85;;
44822;SDS011;51097;51.984;5.650;2023-08-17T03:03:11;2.72;;;2.08;;
44822;SDS011;51097;51.984;5.650;2023-08-17T03:05:37;4.93;;;2.42;;
44822;SDS011;51097;51.984;5.650;2023-08-17T03:08:03;5.85;;;2.40;;
44822;SDS011;51097;51.984;5.650;2023-08-17T03:10:29;5.25;;;2.53;;
44822;SDS011;51097;51.984;5.650;2023-08-17T03:12:55;4.28;;;2.28;;
44822;SDS011;51097;51.984;5.650;2023-08-17T03:15:20;4.22;;;2.10;;
44822;SDS011;51097;51.984;5.650;2023-08-17T03:17:46;6.47;;;2.55;;
44822;SDS011;51097;51.984;5.650;2023-08-17T03:20:11;4.30;;;2.38;;
44822;SDS011;51097;51.984;5.650;2023-08-17T03:22:37;4.82;;;2.47;;
44822;SDS011;51097;51.984;5.650;2023-08-17T03:25:02;6.97;;;2.63;;
44822;SDS011;51097;51.984;5.650;2023-08-17T03:27:28;4.03;;;1.83;;
44822;SDS011;51097;51.984;5.650;2023-08-17T03:29:54;6.57;;;2.10;;
44822;SDS011;51097;51.984;5.650;2023-08-17T03:32:20;6.00;;;1.88;;
44822;SDS011;51097;51.984;5.650;2023-08-17T03:34:45;9.38;;;1.98;;
44822;SDS011;51097;51.984;5.650;2023-08-17T03:37:11;6.90;;;2.97;;
44822;SDS011;51097;51.984;5.650;2023-08-17T03:39:36;4.85;;;2.75;;
44822;SDS011;51097;51.984;5.650;2023-08-17T03:42:02;4.72;;;2.03;;
44822;SDS011;51097;51.984;5.650;2023-08-17T03:44:28;6.07;;;2.35;;
44822;SDS011;51097;51.984;5.650;2023-08-17T03:46:53;3.88;;;2.00;;
44822;SDS011;51097;51.984;5.650;2023-08-17T03:49:19;3.40;;;2.88;;
44822;SDS011;51097;51.984;5.650;2023-08-17T03:51:44;4.13;;;2.03;;
44822;SDS011;51097;51.984;5.650;2023-08-17T03:54:11;4.28;;;2.40;;
44822;SDS011;51097;51.984;5.650;2023-08-17T03:56:37;3.03;;;2.20;;
44822;SDS011;51097;51.984;5.650;2023-08-17T03:59:03;9.55;;;2.75;;
44822;SDS011;51097;51.984;5.650;2023-08-17T04:01:29;3.10;;;2.72;;
44822;SDS011;51097;51.984;5.650;2023-08-17T04:03:54;4.13;;;2.53;;
44822;SDS011;51097;51.984;5.650;2023-08-17T04:06:20;5.93;;;2.40;;
44822;SDS011;51097;51.984;5.650;2023-08-17T04:08:46;4.63;;;2.15;;
44822;SDS011;51097;51.984;5.650;2023-08-17T04:11:11;7.38;;;2.17;;
44822;SDS011;51097;51.984;5.650;2023-08-17T04:13:37;4.80;;;2.35;;
44822;SDS011;51097;51.984;5.650;2023-08-17T04:16:02;4.57;;;2.63;;
44822;SDS011;51097;51.984;5.650;2023-08-17T04:18:28;6.97;;;2.85;;
44822;SDS011;51097;51.984;5.650;2023-08-17T04:20:54;6.22;;;2.65;;
44822;SDS011;51097;51.984;5.650;2023-08-17T04:23:19;4.53;;;2.58;;
44822;SDS011;51097;51.984;5.650;2023-08-17T04:25:46;6.63;;;2.63;;
44822;SDS011;51097;51.984;5.650;2023-08-17T04:28:11;6.28;;;2.38;;
44822;SDS011;51097;51.984;5.650;2023-08-17T04:30:37;7.40;;;3.50;;
44822;SDS011;51097;51.984;5.650;2023-08-17T04:33:03;6.40;;;2.35;;
44822;SDS011;51097;51.984;5.650;2023-08-17T04:35:29;3.72;;;2.13;;
44822;SDS011;51097;51.984;5.650;2023-08-17T04:37:55;5.18;;;2.20;;
44822;SDS011;51097;51.984;5.650;2023-08-17T04:40:21;2.47;;;2.08;;
44822;SDS011;51097;51.984;5.650;2023-08-17T04:42:46;3.75;;;1.98;;
44822;SDS011;51097;51.984;5.650;2023-08-17T04:45:12;3.65;;;2.40;;
44822;SDS011;51097;51.984;5.650;2023-08-17T04:47:38;8.48;;;2.60;;
44822;SDS011;51097;51.984;5.650;2023-08-17T04:50:04;5.28;;;2.28;;
44822;SDS011;51097;51.984;5.650;2023-08-17T04:52:31;5.68;;;2.42;;
44822;SDS011;51097;51.984;5.650;2023-08-17T04:54:56;3.92;;;2.70;;
44822;SDS011;51097;51.984;5.650;2023-08-17T04:57:22;7.00;;;3.17;;
44822;SDS011;51097;51.984;5.650;2023-08-17T04:59:48;4.43;;;2.40;;
44822;SDS011;51097;51.984;5.650;2023-08-17T05:02:13;6.60;;;2.50;;
44822;SDS011;51097;51.984;5.650;2023-08-17T05:04:39;6.30;;;2.63;;
44822;SDS011;51097;51.984;5.650;2023-08-17T05:07:05;5.13;;;2.70;;
44822;SDS011;51097;51.984;5.650;2023-08-17T05:09:30;5.80;;;2.30;;
44822;SDS011;51097;51.984;5.650;2023-08-17T05:11:56;5.85;;;2.40;;
44822;SDS011;51097;51.984;5.650;2023-08-17T05:14:22;4.88;;;2.40;;
44822;SDS011;51097;51.984;5.650;2023-08-17T05:16:47;5.97;;;2.20;;
44822;SDS011;51097;51.984;5.650;2023-08-17T05:19:13;4.40;;;2.45;;
44822;SDS011;51097;51.984;5.650;2023-08-17T05:21:39;5.63;;;2.72;;
44822;SDS011;51097;51.984;5.650;2023-08-17T05:24:04;6.90;;;2.20;;
44822;SDS011;51097;51.984;5.650;2023-08-17T05:26:30;6.80;;;3.00;;
44822;SDS011;51097;51.984;5.650;2023-08-17T05:28:56;6.45;;;2.20;;
44822;SDS011;51097;51.984;5.650;2023-08-17T05:31:22;3.38;;;1.73;;
44822;SDS011;51097;51.984;5.650;2023-08-17T05:33:47;6.70;;;2.55;;
44822;SDS011;51097;51.984;5.650;2023-08-17T05:36:13;5.30;;;2.40;;
44822;SDS011;51097;51.984;5.650;2023-08-17T05:38:39;5.57;;;2.05;;
44822;SDS011;51097;51.984;5.650;2023-08-17T05:41:05;5.55;;;1.80;;
44822;SDS011;51097;51.984;5.650;2023-08-17T05:43:30;2.30;;;1.90;;
44822;SDS011;51097;51.984;5.650;2023-08-17T05:45:57;5.53;;;2.58;;
44822;SDS011;51097;51.984;5.650;2023-08-17T05:48:24;3.20;;;1.60;;
44822;SDS011;51097;51.984;5.650;2023-08-17T05:50:50;3.58;;;1.73;;
44822;SDS011;51097;51.984;5.650;2023-08-17T05:53:15;4.47;;;1.92;;
44822;SDS011;51097;51.984;5.650;2023-08-17T05:55:41;3.30;;;2.15;;
44822;SDS011;51097;51.984;5.650;2023-08-17T05:58:06;3.22;;;1.92;;
44822;SDS011;51097;51.984;5.650;2023-08-17T06:00:32;6.25;;;1.80;;
44822;SDS011;51097;51.984;5.650;2023-08-17T06:02:57;6.63;;;2.33;;
44822;SDS011;51097;51.984;5.650;2023-08-17T06:05:29;6.93;;;2.42;;
44822;SDS011;51097;51.984;5.650;2023-08-17T06:07:58;6.88;;;2.20;;
44822;SDS011;51097;51.984;5.650;2023-08-17T06:10:24;5.65;;;2.33;;
44822;SDS011;51097;51.984;5.650;2023-08-17T06:12:53;4.32;;;2.10;;
44822;SDS011;51097;51.984;5.650;2023-08-17T06:15:19;6.22;;;1.90;;
44822;SDS011;51097;51.984;5.650;2023-08-17T06:17:45;5.22;;;2.35;;
44822;SDS011;51097;51.984;5.650;2023-08-17T06:20:11;5.45;;;2.70;;
44822;SDS011;51097;51.984;5.650;2023-08-17T06:22:37;5.43;;;2.40;;
44822;SDS011;51097;51.984;5.650;2023-08-17T06:25:04;4.90;;;2.00;;
44822;SDS011;51097;51.984;5.650;2023-08-17T06:27:34;6.28;;;2.15;;
44822;SDS011;51097;51.984;5.650;2023-08-17T06:30:01;3.90;;;2.20;;
44822;SDS011;51097;51.984;5.650;2023-08-17T06:32:28;6.85;;;1.73;;
44822;SDS011;51097;51.984;5.650;2023-08-17T06:34:54;4.47;;;2.33;;
44822;SDS011;51097;51.984;5.650;2023-08-17T06:37:19;5.50;;;1.92;;
44822;SDS011;51097;51.984;5.650;2023-08-17T06:39:45;8.35;;;2.45;;
44822;SDS011;51097;51.984;5.650;2023-08-17T06:42:10;7.05;;;2.28;;
44822;SDS011;51097;51.984;5.650;2023-08-17T06:44:36;6.63;;;2.03;;
44822;SDS011;51097;51.984;5.650;2023-08-17T06:47:02;8.15;;;2.88;;
44822;SDS011;51097;51.984;5.650;2023-08-17T06:49:28;4.85;;;1.98;;
44822;SDS011;51097;51.984;5.650;2023-08-17T06:51:53;4.10;;;2.22;;
44822;SDS011;51097;51.984;5.650;2023-08-17T06:54:19;6.22;;;2.15;;
44822;SDS011;51097;51.984;5.650;2023-08-17T06:56:45;4.93;;;2.08;;
44822;SDS011;51097;51.984;5.650;2023-08-17T06:59:10;3.92;;;1.95;;
44822;SDS011;51097;51.984;5.650;2023-08-17T07:01:36;4.13;;;2.15;;
44822;SDS011;51097;51.984;5.650;2023-08-17T07:04:01;3.85;;;2.17;;
44822;SDS011;51097;51.984;5.650;2023-08-17T07:06:27;4.85;;;2.80;;
44822;SDS011;51097;51.984;5.650;2023-08-17T07:08:53;5.50;;;1.58;;
44822;SDS011;51097;51.984;5.650;2023-08-17T07:11:19;4.35;;;2.38;;
44822;SDS011;51097;51.984;5.650;2023-08-17T07:13:45;5.13;;;2.15;;
44822;SDS011;51097;51.984;5.650;2023-08-17T07:16:10;6.28;;;1.90;;
44822;SDS011;51097;51.984;5.650;2023-08-17T07:18:36;4.35;;;2.17;;
44822;SDS011;51097;51.984;5.650;2023-08-17T07:21:02;4.93;;;1.85;;
44822;SDS011;51097;51.984;5.650;2023-08-17T07:23:27;5.80;;;2.10;;
44822;SDS011;51097;51.984;5.650;2023-08-17T07:25:53;5.70;;;2.75;;
44822;SDS011;51097;51.984;5.650;2023-08-17T07:28:18;4.53;;;3.00;;
44822;SDS011;51097;51.984;5.650;2023-08-17T07:30:44;5.15;;;1.98;;
44822;SDS011;51097;51.984;5.650;2023-08-17T07:33:10;3.70;;;2.30;;
44822;SDS011;51097;51.984;5.650;2023-08-17T07:35:35;3.92;;;1.98;;
44822;SDS011;51097;51.984;5.650;2023-08-17T07:38:01;8.05;;;2.15;;
44822;SDS011;51097;51.984;5.650;2023-08-17T07:40:27;4.72;;;1.98;;
44822;SDS011;51097;51.984;5.650;2023-08-17T07:42:52;7.45;;;2.35;;
44822;SDS011;51097;51.984;5.650;2023-08-17T07:45:18;7.25;;;2.50;;
44822;SDS011;51097;51.984;5.650;2023-08-17T07:47:44;6.90;;;2.30;;
44822;SDS011;51097;51.984;5.650;2023-08-17T07:50:09;5.10;;;2.05;;
44822;SDS011;51097;51.984;5.650;2023-08-17T07:52:35;3.15;;;2.15;;
44822;SDS011;51097;51.984;5.650;2023-08-17T07:55:01;4.97;;;2.08;;
44822;SDS011;51097;51.984;5.650;2023-08-17T07:57:26;4.72;;;2.13;;
44822;SDS011;51097;51.984;5.650;2023-08-17T07:59:52;9.55;;;3.80;;
44822;SDS011;51097;51.984;5.650;2023-08-17T08:02:19;5.13;;;2.90;;
44822;SDS011;51097;51.984;5.650;2023-08-17T08:04:44;4.32;;;2.20;;
44822;SDS011;51097;51.984;5.650;2023-08-17T08:07:10;5.03;;;2.83;;
44822;SDS011;51097;51.984;5.650;2023-08-17T08:09:35;6.65;;;2.53;;
44822;SDS011;51097;51.984;5.650;2023-08-17T08:12:01;6.88;;;2.65;;
44822;SDS011;51097;51.984;5.650;2023-08-17T08:14:27;5.68;;;2.75;;
44822;SDS011;51097;51.984;5.650;2023-08-17T08:16:54;4.53;;;2.20;;
44822;SDS011;51097;51.984;5.650;2023-08-17T08:19:19;6.65;;;2.38;;
44822;SDS011;51097;51.984;5.650;2023-08-17T08:21:45;4.10;;;2.08;;
44822;SDS011;51097;51.984;5.650;2023-08-17T08:24:10;5.13;;;2.28;;
44822;SDS011;51097;51.984;5.650;2023-08-17T08:26:36;5.85;;;2.58;;
44822;SDS011;51097;51.984;5.650;2023-08-17T08:29:02;6.45;;;3.30;;
44822;SDS011;51097;51.984;5.650;2023-08-17T08:31:27;3.08;;;2.60;;
44822;SDS011;51097;51.984;5.650;2023-08-17T08:33:53;4.43;;;2.85;;
44822;SDS011;51097;51.984;5.650;2023-08-17T08:36:19;6.22;;;2.65;;
44822;SDS011;51097;51.984;5.650;2023-08-17T08:38:44;5.95;;;2.92;;
44822;SDS011;51097;51.984;5.650;2023-08-17T08:41:10;4.70;;;3.17;;
44822;SDS011;51097;51.984;5.650;2023-08-17T08:43:37;4.35;;;1.98;;
44822;SDS011;51097;51.984;5.650;2023-08-17T08:46:03;7.28;;;2.90;;
44822;SDS011;51097;51.984;5.650;2023-08-17T08:48:29;8.15;;;2.92;;
44822;SDS011;51097;51.984;5.650;2023-08-17T08:50:57;4.97;;;2.50;;
44822;SDS011;51097;51.984;5.650;2023-08-17T08:53:31;5.65;;;2.90;;
44822;SDS011;51097;51.984;5.650;2023-08-17T08:56:10;7.35;;;2.92;;
44822;SDS011;51097;51.984;5.650;2023-08-17T08:58:40;4.72;;;2.90;;
44822;SDS011;51097;51.984;5.650;2023-08-17T09:01:07;8.63;;;3.38;;
44822;SDS011;51097;51.984;5.650;2023-08-17T09:03:35;6.32;;;2.97;;
44822;SDS011;51097;51.984;5.650;2023-08-17T09:06:01;5.07;;;2.97;;
44822;SDS011;51097;51.984;5.650;2023-08-17T09:08:28;7.68;;;3.00;;
44822;SDS011;51097;51.984;5.650;2023-08-17T09:10:55;4.88;;;3.05;;
44822;SDS011;51097;51.984;5.650;2023-08-17T09:13:20;6.20;;;4.05;;
44822;SDS011;51097;51.984;5.650;2023-08-17T09:15:46;6.07;;;3.13;;
44822;SDS011;51097;51.984;5.650;2023-08-17T09:18:12;11.05;;;4.22;;
44822;SDS011;51097;51.984;5.650;2023-08-17T09:20:41;10.30;;;4.97;;
44822;SDS011;51097;51.984;5.650;2023-08-17T09:23:11;7.53;;;3.30;;
44822;SDS011;51097;51.984;5.650;2023-08-17T09:25:38;7.72;;;3.72;;
44822;SDS011;51097;51.984;5.650;2023-08-17T09:28:09;6.15;;;2.92;;
44822;SDS011;51097;51.984;5.650;2023-08-17T09:33:17;5.30;;;3.25;;
44822;SDS011;51097;51.984;5.650;2023-08-17T09:35:44;7.35;;;3.70;;
44822;SDS011;51097;51.984;5.650;2023-08-17T09:38:09;6.50;;;3.90;;
44822;SDS011;51097;51.984;5.650;2023-08-17T09:40:35;7.63;;;3.67;;
44822;SDS011;51097;51.984;5.650;2023-08-17T09:43:04;7.85;;;4.05;;
44822;SDS011;51097;51.984;5.650;2023-08-17T09:45:30;7.32;;;4.10;;
44822;SDS011;51097;51.984;5.650;2023-08-17T09:47:58;6.68;;;3.83;;
44822;SDS011;51097;51.984;5.650;2023-08-17T09:50:25;8.50;;;3.77;;
44822;SDS011;51097;51.984;5.650;2023-08-17T09:52:54;14.43;;;4.85;;
44822;SDS011;51097;51.984;5.650;2023-08-17T09:55:20;6.63;;;3.90;;
44822;SDS011;51097;51.984;5.650;2023-08-17T09:57:48;8.90;;;3.60;;
44822;SDS011;51097;51.984;5.650;2023-08-17T10:00:15;9.90;;;3.85;;
44822;SDS011;51097;51.984;5.650;2023-08-17T10:02:42;6.55;;;3.83;;
44822;SDS011;51097;51.984;5.650;2023-08-17T10:05:10;7.28;;;4.90;;
44822;SDS011;51097;51.984;5.650;2023-08-17T10:07:38;9.75;;;4.22;;
44822;SDS011;51097;51.984;5.650;2023-08-17T10:10:09;9.75;;;4.55;;
44822;SDS011;51097;51.984;5.650;2023-08-17T10:12:47;8.18;;;4.03;;
44822;SDS011;51097;51.984;5.650;2023-08-17T10:15:18;10.57;;;5.15;;
44822;SDS011;51097;51.984;5.650;2023-08-17T10:21:02;7.93;;;5.70;;
44822;SDS011;51097;51.984;5.650;2023-08-17T10:23:35;8.98;;;5.32;;
44822;SDS011;51097;51.984;5.650;2023-08-17T10:26:02;9.50;;;5.25;;
44822;SDS011;51097;51.984;5.650;2023-08-17T10:28:28;6.07;;;4.63;;
44822;SDS011;51097;51.984;5.650;2023-08-17T10:30:56;10.23;;;5.35;;
44822;SDS011;51097;51.984;5.650;2023-08-17T10:33:22;9.50;;;5.15;;
44822;SDS011;51097;51.984;5.650;2023-08-17T10:35:49;8.35;;;4.65;;
44822;SDS011;51097;51.984;5.650;2023-08-17T10:38:15;10.68;;;4.85;;
44822;SDS011;51097;51.984;5.650;2023-08-17T10:40:42;7.15;;;4.50;;
44822;SDS011;51097;51.984;5.650;2023-08-17T10:43:08;10.13;;;4.95;;
44822;SDS011;51097;51.984;5.650;2023-08-17T10:45:34;7.85;;;5.32;;
44822;SDS011;51097;51.984;5.650;2023-08-17T10:50:34;8.50;;;4.38;;
44822;SDS011;51097;51.984;5.650;2023-08-17T10:53:19;8.98;;;4.65;;
44822;SDS011;51097;51.984;5.650;2023-08-17T10:55:45;11.13;;;4.50;;
44822;SDS011;51097;51.984;5.650;2023-08-17T10:58:14;6.70;;;5.45;;
44822;SDS011;51097;51.984;5.650;2023-08-17T11:00:40;6.47;;;4.47;;
44822;SDS011;51097;51.984;5.650;2023-08-17T11:03:17;9.35;;;4.55;;
44822;SDS011;51097;51.984;5.650;2023-08-17T11:05:48;12.48;;;3.80;;
44822;SDS011;51097;51.984;5.650;2023-08-17T11:09:05;7.38;;;4.40;;
44822;SDS011;51097;51.984;5.650;2023-08-17T11:11:19;8.38;;;4.95;;
44822;SDS011;51097;51.984;5.650;2023-08-17T11:13:46;6.88;;;4.20;;
44822;SDS011;51097;51.984;5.650;2023-08-17T11:16:13;7.35;;;4.20;;
44822;SDS011;51097;51.984;5.650;2023-08-17T11:18:40;11.02;;;4.32;;
44822;SDS011;51097;51.984;5.650;2023-08-17T11:21:15;8.93;;;4.70;;
44822;SDS011;51097;51.984;5.650;2023-08-17T11:23:42;7.75;;;4.82;;
44822;SDS011;51097;51.984;5.650;2023-08-17T11:26:08;8.90;;;5.25;;
44822;SDS011;51097;51.984;5.650;2023-08-17T11:28:34;12.55;;;5.78;;
44822;SDS011;51097;51.984;5.650;2023-08-17T11:31:07;8.70;;;5.25;;
44822;SDS011;51097;51.984;5.650;2023-08-17T11:33:34;8.15;;;4.57;;
44822;SDS011;51097;51.984;5.650;2023-08-17T11:36:01;9.00;;;4.38;;
44822;SDS011;51097;51.984;5.650;2023-08-17T11:38:32;7.38;;;4.57;;
44822;SDS011;51097;51.984;5.650;2023-08-17T11:40:58;7.95;;;4.13;;
44822;SDS011;51097;51.984;5.650;2023-08-17T11:43:25;8.38;;;4.57;;
44822;SDS011;51097;51.984;5.650;2023-08-17T11:45:54;8.25;;;4.78;;
44822;SDS011;51097;51.984;5.650;2023-08-17T11:48:23;8.80;;;4.35;;
44822;SDS011;51097;51.984;5.650;2023-08-17T11:50:49;7.90;;;4.65;;
44822;SDS011;51097;51.984;5.650;2023-08-17T11:53:15;8.75;;;4.72;;
44822;SDS011;51097;51.984;5.650;2023-08-17T11:55:41;5.53;;;4.25;;
44822;SDS011;51097;51.984;5.650;2023-08-17T11:58:08;5.50;;;3.70;;
44822;SDS011;51097;51.984;5.650;2023-08-17T12:00:41;7.45;;;4.78;;
44822;SDS011;51097;51.984;5.650;2023-08-17T12:03:12;7.40;;;4.43;;
44822;SDS011;51097;51.984;5.650;2023-08-17T12:05:38;5.38;;;4.07;;
44822;SDS011;51097;51.984;5.650;2023-08-17T12:08:04;6.85;;;4.47;;
44822;SDS011;51097;51.984;5.650;2023-08-17T12:10:33;6.67;;;4.33;;
44822;SDS011;51097;51.984;5.650;2023-08-17T12:13:00;7.00;;;4.05;;
44822;SDS011;51097;51.984;5.650;2023-08-17T12:15:30;7.45;;;4.25;;
44822;SDS011;51097;51.984;5.650;2023-08-17T12:18:01;6.75;;;4.38;;
44822;SDS011;51097;51.984;5.650;2023-08-17T12:20:28;6.00;;;3.63;;
44822;SDS011;51097;51.984;5.650;2023-08-17T12:22:56;6.40;;;4.85;;
44822;SDS011;51097;51.984;5.650;2023-08-17T12:25:23;6.35;;;4.50;;
44822;SDS011;51097;51.984;5.650;2023-08-17T12:27:48;5.68;;;4.10;;
44822;SDS011;51097;51.984;5.650;2023-08-17T12:30:27;5.82;;;4.25;;
44822;SDS011;51097;51.984;5.650;2023-08-17T12:32:54;8.63;;;3.90;;
44822;SDS011;51097;51.984;5.650;2023-08-17T12:35:20;4.93;;;4.35;;
44822;SDS011;51097;51.984;5.650;2023-08-17T12:37:48;8.48;;;4.28;;
44822;SDS011;51097;51.984;5.650;2023-08-17T12:40:13;6.43;;;4.10;;
44822;SDS011;51097;51.984;5.650;2023-08-17T12:42:39;5.85;;;4.10;;
44822;SDS011;51097;51.984;5.650;2023-08-17T12:45:04;6.07;;;3.97;;
44822;SDS011;51097;51.984;5.650;2023-08-17T12:47:30;5.88;;;3.75;;
44822;SDS011;51097;51.984;5.650;2023-08-17T12:49:56;9.35;;;4.72;;
44822;SDS011;51097;51.984;5.650;2023-08-17T12:52:21;8.90;;;5.20;;
44822;SDS011;51097;51.984;5.650;2023-08-17T12:54:47;6.38;;;4.93;;
44822;SDS011;51097;51.984;5.650;2023-08-17T12:57:13;8.68;;;4.53;;
44822;SDS011;51097;51.984;5.650;2023-08-17T12:59:38;8.60;;;3.97;;
44822;SDS011;51097;51.984;5.650;2023-08-17T13:02:04;8.20;;;4.63;;
44822;SDS011;51097;51.984;5.650;2023-08-17T13:04:30;6.35;;;4.03;;
44822;SDS011;51097;51.984;5.650;2023-08-17T13:06:56;4.95;;;3.97;;
44822;SDS011;51097;51.984;5.650;2023-08-17T13:09:21;9.80;;;5.35;;
44822;SDS011;51097;51.984;5.650;2023-08-17T13:11:47;6.60;;;4.32;;
44822;SDS011;51097;51.984;5.650;2023-08-17T13:14:14;6.85;;;4.40;;
44822;SDS011;51097;51.984;5.650;2023-08-17T13:16:40;6.30;;;4.68;;
44822;SDS011;51097;51.984;5.650;2023-08-17T13:19:06;7.88;;;4.47;;
44822;SDS011;51097;51.984;5.650;2023-08-17T13:21:31;7.97;;;4.90;;
44822;SDS011;51097;51.984;5.650;2023-08-17T13:23:57;6.15;;;4.53;;
44822;SDS011;51097;51.984;5.650;2023-08-17T13:26:22;7.03;;;4.68;;
44822;SDS011;51097;51.984;5.650;2023-08-17T13:28:48;7.22;;;4.38;;
44822;SDS011;51097;51.984;5.650;2023-08-17T13:31:14;7.88;;;4.75;;
44822;SDS011;51097;51.984;5.650;2023-08-17T13:33:39;7.13;;;5.07;;
44822;SDS011;51097;51.984;5.650;2023-08-17T13:36:05;6.32;;;4.57;;
44822;SDS011;51097;51.984;5.650;2023-08-17T13:38:31;6.78;;;4.20;;
44822;SDS011;51097;51.984;5.650;2023-08-17T13:40:56;6.90;;;4.82;;
44822;SDS011;51097;51.984;5.650;2023-08-17T13:43:22;5.68;;;5.10;;
44822;SDS011;51097;51.984;5.650;2023-08-17T13:45:48;7.68;;;5.30;;
44822;SDS011;51097;51.984;5.650;2023-08-17T13:48:13;7.47;;;5.35;;
44822;SDS011;51097;51.984;5.650;2023-08-17T13:50:39;5.82;;;5.20;;
44822;SDS011;51097;51.984;5.650;2023-08-17T13:53:05;6.60;;;5.05;;
44822;SDS011;51097;51.984;5.650;2023-08-17T13:55:30;6.63;;;5.30;;
44822;SDS011;51097;51.984;5.650;2023-08-17T13:57:57;6.63;;;5.05;;
44822;SDS011;51097;51.984;5.650;2023-08-17T14:00:23;6.15;;;4.90;;
44822;SDS011;51097;51.984;5.650;2023-08-17T14:02:49;6.65;;;4.70;;
44822;SDS011;51097;51.984;5.650;2023-08-17T14:05:15;5.97;;;5.32;;
44822;SDS011;51097;51.984;5.650;2023-08-17T14:07:40;8.07;;;5.40;;
44822;SDS011;51097;51.984;5.650;2023-08-17T14:10:06;7.60;;;5.85;;
44822;SDS011;51097;51.984;5.650;2023-08-17T14:12:32;6.95;;;5.63;;
44822;SDS011;51097;51.984;5.650;2023-08-17T14:14:58;5.72;;;5.18;;
44822;SDS011;51097;51.984;5.650;2023-08-17T14:17:24;8.50;;;5.25;;
44822;SDS011;51097;51.984;5.650;2023-08-17T14:19:50;6.13;;;5.43;;
44822;SDS011;51097;51.984;5.650;2023-08-17T14:22:15;8.27;;;5.78;;
44822;SDS011;51097;51.984;5.650;2023-08-17T14:24:41;4.93;;;4.25;;
44822;SDS011;51097;51.984;5.650;2023-08-17T14:27:06;7.72;;;5.57;;
44822;SDS011;51097;51.984;5.650;2023-08-17T14:29:32;7.85;;;5.60;;
44822;SDS011;51097;51.984;5.650;2023-08-17T14:31:58;7.97;;;5.25;;
44822;SDS011;51097;51.984;5.650;2023-08-17T14:34:23;5.53;;;4.88;;
44822;SDS011;51097;51.984;5.650;2023-08-17T14:36:49;6.03;;;5.40;;
44822;SDS011;51097;51.984;5.650;2023-08-17T14:39:15;7.95;;;5.35;;
44822;SDS011;51097;51.984;5.650;2023-08-17T14:41:41;8.07;;;5.35;;
44822;SDS011;51097;51.984;5.650;2023-08-17T14:44:06;7.63;;;5.63;;
44822;SDS011;51097;51.984;5.650;2023-08-17T14:46:32;6.50;;;5.18;;
44822;SDS011;51097;51.984;5.650;2023-08-17T14:48:57;6.05;;;4.30;;
44822;SDS011;51097;51.984;5.650;2023-08-17T14:51:25;8.27;;;5.43;;
44822;SDS011;51097;51.984;5.650;2023-08-17T14:53:53;6.93;;;5.57;;
44822;SDS011;51097;51.984;5.650;2023-08-17T14:56:19;4.75;;;4.35;;
44822;SDS011;51097;51.984;5.650;2023-08-17T14:58:44;7.03;;;5.45;;